createdAt,value
2023-04-30T00:00:40.175Z,5.96
2023-04-30T00:05:37.352Z,6.00
2023-04-30T00:10:33.852Z,5.95
2023-04-30T00:15:31.184Z,5.81
2023-04-30T00:20:27.686Z,5.84
2023-04-30T00:25:24.712Z,5.61
2023-04-30T00:30:21.104Z,5.48
2023-04-30T00:35:17.519Z,5.41
2023-04-30T00:40:14.024Z,5.35
2023-04-30T00:45:10.744Z,5.25
2023-04-30T00:50:07.525Z,5.23
2023-04-30T00:55:04.146Z,5.15
2023-04-30T01:00:00.955Z,5.06
2023-04-30T01:04:57.926Z,5.14
2023-04-30T01:09:55.169Z,5.29
2023-04-30T01:14:54.763Z,5.25
2023-04-30T01:19:51.252Z,5.28
2023-04-30T01:25:19.425Z,5.40
2023-04-30T01:30:18.441Z,5.39
2023-04-30T01:35:14.968Z,5.29
2023-04-30T01:40:24.422Z,5.27
2023-04-30T01:45:53.708Z,5.17
2023-04-30T01:51:23.816Z,5.01
2023-04-30T01:56:31.245Z,4.92
2023-04-30T02:01:32.813Z,4.89
2023-04-30T02:06:30.272Z,4.79
2023-04-30T02:11:26.815Z,4.73
2023-04-30T02:16:23.947Z,4.50
2023-04-30T02:21:20.399Z,4.39
2023-04-30T02:26:16.929Z,4.33
2023-04-30T02:31:13.354Z,4.17
2023-04-30T02:36:09.835Z,4.24
2023-04-30T02:41:21.763Z,4.10
2023-04-30T02:46:19.132Z,3.85
2023-04-30T02:51:15.617Z,3.82
2023-04-30T02:56:12.012Z,3.88
2023-04-30T03:01:08.494Z,3.88
2023-04-30T03:06:05.236Z,3.60
2023-04-30T03:11:01.689Z,3.55
2023-04-30T03:15:59.627Z,3.60
2023-04-30T03:20:56.850Z,3.58
2023-04-30T03:25:53.290Z,3.47
2023-04-30T03:30:50.314Z,3.28
2023-04-30T03:35:46.840Z,3.19
2023-04-30T03:40:43.370Z,3.14
2023-04-30T03:45:39.836Z,2.99
2023-04-30T03:50:36.291Z,2.95
2023-04-30T03:55:34.038Z,2.96
2023-04-30T04:00:31.144Z,2.98
2023-04-30T04:05:27.602Z,2.92
2023-04-30T04:10:23.975Z,2.78
2023-04-30T04:15:20.572Z,2.79
2023-04-30T04:20:17.654Z,2.84
2023-04-30T04:25:14.222Z,2.79
2023-04-30T04:30:11.185Z,2.87
2023-04-30T04:35:08.318Z,2.74
2023-04-30T04:40:05.390Z,2.91
2023-04-30T04:45:03.768Z,2.89
2023-04-30T04:50:00.694Z,2.98
2023-04-30T04:54:57.132Z,3.13
2023-04-30T04:59:53.770Z,3.37
2023-04-30T05:04:51.235Z,3.49
2023-04-30T05:09:47.705Z,3.69
2023-04-30T05:14:44.868Z,3.77
2023-04-30T05:19:41.296Z,4.09
2023-04-30T05:24:37.744Z,4.41
2023-04-30T05:29:34.244Z,4.78
2023-04-30T05:34:30.970Z,5.13
2023-04-30T05:39:27.382Z,5.42
2023-04-30T05:44:24.168Z,5.60
2023-04-30T05:49:20.746Z,5.98
2023-04-30T05:54:17.577Z,6.44
2023-04-30T05:59:14.007Z,6.56
2023-04-30T06:04:11.712Z,6.73
2023-04-30T06:09:08.216Z,7.08
2023-04-30T06:14:04.725Z,7.42
2023-04-30T06:19:01.100Z,7.51
2023-04-30T06:23:57.529Z,7.84
2023-04-30T06:28:53.920Z,8.33
2023-04-30T06:33:50.906Z,8.47
2023-04-30T06:38:47.436Z,8.43
2023-04-30T06:43:43.949Z,8.66
2023-04-30T06:48:40.586Z,9.03
2023-04-30T06:53:37.047Z,9.34
2023-04-30T06:58:33.480Z,9.70
2023-04-30T07:03:29.984Z,9.79
2023-04-30T07:08:26.496Z,9.89
2023-04-30T07:13:22.859Z,10.02
2023-04-30T07:18:19.492Z,10.06
2023-04-30T07:23:15.900Z,10.23
2023-04-30T07:28:12.306Z,10.74
2023-04-30T07:33:09.520Z,10.70
2023-04-30T07:38:05.985Z,10.67
2023-04-30T07:43:02.696Z,10.72
2023-04-30T07:47:59.136Z,11.11
2023-04-30T07:52:55.535Z,11.08
2023-04-30T07:57:52.179Z,9.75
2023-04-30T08:02:49.902Z,9.81
2023-04-30T08:07:46.573Z,10.52
2023-04-30T08:12:42.954Z,11.01
2023-04-30T08:17:39.391Z,11.36
2023-04-30T08:22:36.355Z,11.67
2023-04-30T08:27:32.758Z,11.63
2023-04-30T08:32:29.668Z,11.85
2023-04-30T08:37:26.281Z,12.08
2023-04-30T08:42:35.198Z,11.78
2023-04-30T08:47:31.877Z,11.52
2023-04-30T08:52:30.231Z,11.95
2023-04-30T08:57:26.976Z,12.47
2023-04-30T09:02:23.442Z,11.66
2023-04-30T09:07:21.119Z,12.44
2023-04-30T09:12:19.757Z,12.66
2023-04-30T09:17:22.134Z,12.07
2023-04-30T09:22:21.152Z,12.95
2023-04-30T09:27:23.817Z,13.78
2023-04-30T09:32:20.403Z,13.62
2023-04-30T09:37:16.906Z,12.27
2023-04-30T09:42:13.323Z,12.66
2023-04-30T09:47:15.594Z,13.52
2023-04-30T09:52:12.627Z,12.90
2023-04-30T09:57:11.710Z,12.33
2023-04-30T10:02:09.236Z,12.48
2023-04-30T10:07:14.813Z,13.60
2023-04-30T10:12:16.404Z,13.62
2023-04-30T10:17:17.014Z,12.51
2023-04-30T10:22:14.265Z,13.19
2023-04-30T10:27:11.103Z,13.68
2023-04-30T10:32:08.363Z,14.72
2023-04-30T10:37:11.952Z,14.29
2023-04-30T10:42:10.388Z,13.36
2023-04-30T10:47:08.094Z,13.49
2023-04-30T10:52:05.299Z,13.25
2023-04-30T10:57:11.696Z,13.76
2023-04-30T11:02:11.158Z,13.70
2023-04-30T11:07:09.862Z,13.95
2023-04-30T11:12:16.032Z,15.19
2023-04-30T11:17:22.564Z,15.13
2023-04-30T11:22:24.444Z,14.77
2023-04-30T11:27:32.115Z,14.87
2023-04-30T11:32:36.197Z,14.50
2023-04-30T11:37:37.765Z,13.94
2023-04-30T11:42:35.005Z,14.25
2023-04-30T11:47:44.090Z,14.78
2023-04-30T11:52:41.800Z,15.14
2023-04-30T11:57:42.857Z,14.80
2023-04-30T12:02:39.942Z,14.96
2023-04-30T12:07:36.518Z,15.75
2023-04-30T12:12:32.878Z,15.14
2023-04-30T12:17:35.804Z,15.80
2023-04-30T12:22:32.695Z,16.11
2023-04-30T12:27:30.104Z,15.51
2023-04-30T12:32:26.622Z,15.50
2023-04-30T12:37:23.063Z,15.95
2023-04-30T12:42:20.098Z,15.46
2023-04-30T12:47:16.696Z,15.81
2023-04-30T12:52:14.038Z,15.55
2023-04-30T12:57:12.995Z,14.74
2023-04-30T13:02:12.035Z,15.52
2023-04-30T13:07:08.838Z,15.66
2023-04-30T13:12:06.203Z,16.28
2023-04-30T13:17:05.695Z,16.76
2023-04-30T13:22:02.194Z,16.70
2023-04-30T13:26:59.254Z,16.17
2023-04-30T13:31:55.883Z,15.73
2023-04-30T13:36:53.648Z,16.08
2023-04-30T13:41:50.556Z,15.85
2023-04-30T13:46:46.944Z,16.33
2023-04-30T13:51:43.341Z,16.01
2023-04-30T13:56:39.735Z,16.01
2023-04-30T14:01:36.088Z,16.15
2023-04-30T14:06:32.500Z,16.13
2023-04-30T14:11:28.885Z,16.35
2023-04-30T14:16:25.476Z,16.71
2023-04-30T14:21:21.847Z,17.03
2023-04-30T14:26:18.384Z,16.70
2023-04-30T14:31:14.758Z,17.12
2023-04-30T14:36:11.264Z,16.37
2023-04-30T14:41:07.668Z,16.86
2023-04-30T14:46:04.357Z,17.01
2023-04-30T14:51:01.334Z,15.88
2023-04-30T14:55:57.733Z,16.53
2023-04-30T15:00:54.194Z,17.13
2023-04-30T15:05:51.640Z,16.86
2023-04-30T15:10:48.062Z,15.82
2023-04-30T15:15:46.974Z,15.64
2023-04-30T15:20:43.514Z,16.56
2023-04-30T15:25:39.951Z,17.00
2023-04-30T15:30:36.943Z,17.42
2023-04-30T15:35:33.292Z,17.11
2023-04-30T15:40:29.683Z,16.75
2023-04-30T15:45:27.436Z,17.52
2023-04-30T15:50:23.925Z,17.95
2023-04-30T15:55:20.345Z,18.37
2023-04-30T16:00:17.102Z,17.63
2023-04-30T16:05:13.566Z,18.35
2023-04-30T16:10:10.334Z,18.74
2023-04-30T16:15:07.757Z,18.94
2023-04-30T16:20:04.669Z,19.00
2023-04-30T16:25:01.000Z,18.71
2023-04-30T16:29:57.770Z,18.50
2023-04-30T16:34:54.338Z,18.59
2023-04-30T16:39:50.761Z,19.85
2023-04-30T16:44:47.192Z,21.51
2023-04-30T16:49:43.583Z,23.43
2023-04-30T16:54:39.936Z,25.80
2023-04-30T16:59:36.310Z,25.92
2023-04-30T17:04:33.004Z,27.00
2023-04-30T17:09:29.807Z,27.64
2023-04-30T17:14:26.912Z,25.81
2023-04-30T17:19:23.279Z,24.27
2023-04-30T17:24:19.633Z,23.84
2023-04-30T17:29:16.591Z,23.79
2023-04-30T17:34:13.547Z,22.54
2023-04-30T17:39:11.589Z,20.18
2023-04-30T17:44:08.064Z,20.62
2023-04-30T17:49:05.067Z,19.25
2023-04-30T17:54:02.044Z,18.68
2023-04-30T17:58:58.942Z,18.68
2023-04-30T18:03:55.534Z,18.81
2023-04-30T18:08:53.750Z,18.82
2023-04-30T18:13:50.136Z,17.20
2023-04-30T18:18:46.485Z,16.21
2023-04-30T18:23:42.827Z,15.45
2023-04-30T18:28:39.193Z,14.34
2023-04-30T18:33:36.272Z,13.91
2023-04-30T18:38:35.288Z,13.33
2023-04-30T18:43:31.656Z,12.91
2023-04-30T18:48:27.999Z,12.59
2023-04-30T18:53:25.106Z,12.29
2023-04-30T18:58:22.208Z,12.10
2023-04-30T19:03:18.725Z,11.93
2023-04-30T19:08:15.225Z,11.62
2023-04-30T19:13:11.797Z,11.37
2023-04-30T19:18:09.104Z,11.24
2023-04-30T19:23:06.805Z,11.25
2023-04-30T19:28:03.226Z,11.08
2023-04-30T19:32:59.642Z,11.12
2023-04-30T19:37:56.074Z,10.84
2023-04-30T19:42:54.758Z,10.65
2023-04-30T19:47:51.325Z,10.63
2023-04-30T19:52:47.710Z,10.45
2023-04-30T19:57:44.604Z,10.36
2023-04-30T20:02:41.054Z,10.21
2023-04-30T20:07:37.528Z,10.16
2023-04-30T20:12:33.993Z,10.04
2023-04-30T20:17:30.464Z,9.93
2023-04-30T20:22:27.484Z,9.72
2023-04-30T20:27:25.709Z,9.61
2023-04-30T20:32:22.461Z,9.62
2023-04-30T20:37:19.029Z,9.69
2023-04-30T20:42:16.296Z,9.51
2023-04-30T20:47:14.238Z,9.42
2023-04-30T20:52:14.232Z,9.35
2023-04-30T20:57:10.748Z,9.32
2023-04-30T21:02:08.098Z,9.31
2023-04-30T21:07:04.495Z,9.18
2023-04-30T21:12:05.319Z,9.05
2023-04-30T21:17:01.920Z,9.00
2023-04-30T21:21:58.568Z,8.87
2023-04-30T21:26:55.006Z,8.77
2023-04-30T21:31:51.749Z,8.64
2023-04-30T21:36:48.202Z,8.39
2023-04-30T21:41:44.584Z,8.28
2023-04-30T21:46:40.931Z,8.11
2023-04-30T21:51:37.726Z,8.05
2023-04-30T21:56:34.169Z,8.02
2023-04-30T22:01:31.162Z,8.06
2023-04-30T22:06:28.393Z,8.03
2023-04-30T22:11:25.362Z,8.06
2023-04-30T22:16:21.799Z,7.85
2023-04-30T22:21:18.336Z,7.49
2023-04-30T22:26:15.383Z,7.36
2023-04-30T22:31:12.110Z,7.27
2023-04-30T22:36:08.593Z,7.30
2023-04-30T22:41:05.362Z,7.37
2023-04-30T22:46:02.374Z,7.32
2023-04-30T22:50:58.806Z,7.09
2023-04-30T22:55:55.354Z,6.87
2023-04-30T23:00:51.922Z,6.76
2023-04-30T23:05:51.444Z,6.72
2023-04-30T23:10:47.793Z,6.72
2023-04-30T23:15:45.333Z,6.68
2023-04-30T23:20:42.167Z,6.68
2023-04-30T23:25:38.505Z,6.73
2023-04-30T23:30:39.015Z,6.58
2023-04-30T23:35:35.359Z,6.52
2023-04-30T23:40:31.713Z,6.46
2023-04-30T23:45:28.030Z,6.35
2023-04-30T23:50:24.493Z,6.30
2023-04-30T23:55:20.939Z,6.28
